Terminal Aerodrome Forecast
Issued by NWS

Home | Current Version | Previous Version | Graphics & Text | Print | Product List | Glossary On
Versions: 1 2 3 4 5 6 7 8 9 10 11 12 13 14 15 16 17 18 19
790
FTUS43 KMPX 281736
TAFRWF
TAF
KRWF 281736Z 2818/2918 05009KT P6SM -SHRA SCT009 OVC012
     FM282000 05009KT P6SM BKN020 OVC040
     FM290400 03007KT P6SM SCT040 OVC080=

USA.gov is the U.S. government's official web portal to all federal, state and local government web resources and services.